sensor_id;sensor_type;location;lat;lon;timestamp;P1;durP1;ratioP1;P2;durP2;ratioP2
31848;SDS011;18414;59.352;18.152;2023-08-06T00:01:48;5.50;;;3.58;;
31848;SDS011;18414;59.352;18.152;2023-08-06T00:04:13;6.20;;;3.58;;
31848;SDS011;18414;59.352;18.152;2023-08-06T00:06:38;4.88;;;3.42;;
31848;SDS011;18414;59.352;18.152;2023-08-06T00:09:04;5.15;;;3.88;;
31848;SDS011;18414;59.352;18.152;2023-08-06T00:11:29;6.93;;;3.60;;
31848;SDS011;18414;59.352;18.152;2023-08-06T00:13:54;4.50;;;3.58;;
31848;SDS011;18414;59.352;18.152;2023-08-06T00:16:20;5.18;;;3.50;;
31848;SDS011;18414;59.352;18.152;2023-08-06T00:18:47;6.05;;;3.35;;
31848;SDS011;18414;59.352;18.152;2023-08-06T00:21:12;6.65;;;3.60;;
31848;SDS011;18414;59.352;18.152;2023-08-06T00:23:38;6.90;;;3.53;;
31848;SDS011;18414;59.352;18.152;2023-08-06T00:26:04;4.75;;;3.70;;
31848;SDS011;18414;59.352;18.152;2023-08-06T00:28:29;5.88;;;4.03;;
31848;SDS011;18414;59.352;18.152;2023-08-06T00:30:55;4.97;;;3.50;;
31848;SDS011;18414;59.352;18.152;2023-08-06T00:33:21;7.10;;;3.92;;
31848;SDS011;18414;59.352;18.152;2023-08-06T00:35:47;8.00;;;4.00;;
31848;SDS011;18414;59.352;18.152;2023-08-06T00:38:12;6.67;;;3.90;;
31848;SDS011;18414;59.352;18.152;2023-08-06T00:40:39;10.65;;;3.83;;
31848;SDS011;18414;59.352;18.152;2023-08-06T00:43:04;6.22;;;3.67;;
31848;SDS011;18414;59.352;18.152;2023-08-06T00:45:29;9.02;;;3.67;;
31848;SDS011;18414;59.352;18.152;2023-08-06T00:47:55;7.32;;;3.92;;
31848;SDS011;18414;59.352;18.152;2023-08-06T00:50:21;7.63;;;4.10;;
31848;SDS011;18414;59.352;18.152;2023-08-06T00:52:47;4.85;;;3.58;;
31848;SDS011;18414;59.352;18.152;2023-08-06T00:55:13;4.78;;;3.60;;
31848;SDS011;18414;59.352;18.152;2023-08-06T00:57:39;6.65;;;3.58;;
31848;SDS011;18414;59.352;18.152;2023-08-06T01:00:04;5.82;;;3.50;;
31848;SDS011;18414;59.352;18.152;2023-08-06T01:02:30;6.83;;;4.40;;
31848;SDS011;18414;59.352;18.152;2023-08-06T01:04:55;7.23;;;4.00;;
31848;SDS011;18414;59.352;18.152;2023-08-06T01:10:25;5.35;;;3.63;;
31848;SDS011;18414;59.352;18.152;2023-08-06T01:13:11;5.90;;;3.60;;
31848;SDS011;18414;59.352;18.152;2023-08-06T01:15:46;5.13;;;3.33;;
31848;SDS011;18414;59.352;18.152;2023-08-06T01:18:12;9.43;;;4.22;;
31848;SDS011;18414;59.352;18.152;2023-08-06T01:20:38;7.97;;;3.90;;
31848;SDS011;18414;59.352;18.152;2023-08-06T01:23:03;4.78;;;3.65;;
31848;SDS011;18414;59.352;18.152;2023-08-06T01:28:32;5.70;;;3.80;;
31848;SDS011;18414;59.352;18.152;2023-08-06T01:31:01;5.93;;;3.85;;
31848;SDS011;18414;59.352;18.152;2023-08-06T01:33:30;4.90;;;3.35;;
31848;SDS011;18414;59.352;18.152;2023-08-06T01:35:57;7.70;;;3.60;;
31848;SDS011;18414;59.352;18.152;2023-08-06T01:38:23;7.40;;;3.30;;
31848;SDS011;18414;59.352;18.152;2023-08-06T01:40:49;3.13;;;2.83;;
31848;SDS011;18414;59.352;18.152;2023-08-06T01:43:14;6.68;;;3.70;;
31848;SDS011;18414;59.352;18.152;2023-08-06T01:45:40;6.17;;;3.70;;
31848;SDS011;18414;59.352;18.152;2023-08-06T01:48:06;5.80;;;3.80;;
31848;SDS011;18414;59.352;18.152;2023-08-06T01:50:31;7.17;;;3.90;;
31848;SDS011;18414;59.352;18.152;2023-08-06T01:52:56;4.40;;;3.60;;
31848;SDS011;18414;59.352;18.152;2023-08-06T01:55:22;9.57;;;4.10;;
31848;SDS011;18414;59.352;18.152;2023-08-06T01:57:47;5.90;;;3.93;;
31848;SDS011;18414;59.352;18.152;2023-08-06T02:00:12;6.30;;;3.90;;
31848;SDS011;18414;59.352;18.152;2023-08-06T02:02:38;4.63;;;3.47;;
31848;SDS011;18414;59.352;18.152;2023-08-06T02:05:05;9.57;;;4.37;;
31848;SDS011;18414;59.352;18.152;2023-08-06T02:07:31;6.30;;;4.00;;
31848;SDS011;18414;59.352;18.152;2023-08-06T02:09:56;6.37;;;3.83;;
31848;SDS011;18414;59.352;18.152;2023-08-06T02:12:22;7.03;;;4.10;;
31848;SDS011;18414;59.352;18.152;2023-08-06T02:14:47;5.23;;;3.93;;
31848;SDS011;18414;59.352;18.152;2023-08-06T02:17:12;6.07;;;3.67;;
31848;SDS011;18414;59.352;18.152;2023-08-06T02:19:38;6.63;;;4.43;;
31848;SDS011;18414;59.352;18.152;2023-08-06T02:22:04;5.73;;;4.00;;
31848;SDS011;18414;59.352;18.152;2023-08-06T02:24:30;9.50;;;3.83;;
31848;SDS011;18414;59.352;18.152;2023-08-06T02:26:55;7.13;;;4.00;;
31848;SDS011;18414;59.352;18.152;2023-08-06T02:29:21;7.97;;;3.80;;
31848;SDS011;18414;59.352;18.152;2023-08-06T02:31:46;8.53;;;4.03;;
31848;SDS011;18414;59.352;18.152;2023-08-06T02:34:12;6.83;;;4.63;;
31848;SDS011;18414;59.352;18.152;2023-08-06T02:36:37;8.70;;;4.53;;
31848;SDS011;18414;59.352;18.152;2023-08-06T02:39:03;8.73;;;3.47;;
31848;SDS011;18414;59.352;18.152;2023-08-06T02:41:28;4.67;;;3.93;;
31848;SDS011;18414;59.352;18.152;2023-08-06T02:43:53;6.03;;;4.00;;
31848;SDS011;18414;59.352;18.152;2023-08-06T02:46:19;5.93;;;3.97;;
31848;SDS011;18414;59.352;18.152;2023-08-06T02:48:44;7.17;;;4.30;;
31848;SDS011;18414;59.352;18.152;2023-08-06T02:51:10;9.70;;;4.50;;
31848;SDS011;18414;59.352;18.152;2023-08-06T02:53:35;7.27;;;4.20;;
31848;SDS011;18414;59.352;18.152;2023-08-06T02:56:00;7.37;;;4.47;;
31848;SDS011;18414;59.352;18.152;2023-08-06T02:58:26;9.93;;;4.07;;
31848;SDS011;18414;59.352;18.152;2023-08-06T03:01:00;7.97;;;3.90;;
31848;SDS011;18414;59.352;18.152;2023-08-06T03:03:28;6.97;;;4.40;;
31848;SDS011;18414;59.352;18.152;2023-08-06T03:05:54;8.20;;;4.70;;
31848;SDS011;18414;59.352;18.152;2023-08-06T03:08:19;7.97;;;3.97;;
31848;SDS011;18414;59.352;18.152;2023-08-06T03:10:48;5.83;;;4.13;;
31848;SDS011;18414;59.352;18.152;2023-08-06T03:13:14;6.63;;;4.25;;
31848;SDS011;18414;59.352;18.152;2023-08-06T03:15:39;6.17;;;4.30;;
31848;SDS011;18414;59.352;18.152;2023-08-06T03:18:05;6.77;;;4.37;;
31848;SDS011;18414;59.352;18.152;2023-08-06T03:20:31;6.77;;;3.80;;
31848;SDS011;18414;59.352;18.152;2023-08-06T03:22:57;6.22;;;3.47;;
31848;SDS011;18414;59.352;18.152;2023-08-06T03:25:22;5.67;;;3.30;;
31848;SDS011;18414;59.352;18.152;2023-08-06T03:27:48;7.68;;;3.70;;
31848;SDS011;18414;59.352;18.152;2023-08-06T03:30:13;5.15;;;3.60;;
31848;SDS011;18414;59.352;18.152;2023-08-06T03:32:38;5.18;;;3.90;;
31848;SDS011;18414;59.352;18.152;2023-08-06T03:35:04;4.82;;;3.55;;
31848;SDS011;18414;59.352;18.152;2023-08-06T03:37:29;5.10;;;3.70;;
31848;SDS011;18414;59.352;18.152;2023-08-06T03:39:55;7.35;;;3.90;;
31848;SDS011;18414;59.352;18.152;2023-08-06T03:42:20;6.05;;;3.80;;
31848;SDS011;18414;59.352;18.152;2023-08-06T03:44:45;6.32;;;3.83;;
31848;SDS011;18414;59.352;18.152;2023-08-06T03:47:12;6.05;;;3.60;;
31848;SDS011;18414;59.352;18.152;2023-08-06T03:49:37;3.80;;;3.40;;
31848;SDS011;18414;59.352;18.152;2023-08-06T03:52:03;4.55;;;3.25;;
31848;SDS011;18414;59.352;18.152;2023-08-06T03:54:28;5.05;;;3.40;;
31848;SDS011;18414;59.352;18.152;2023-08-06T03:56:55;6.13;;;4.05;;
31848;SDS011;18414;59.352;18.152;2023-08-06T03:59:20;5.78;;;3.50;;
31848;SDS011;18414;59.352;18.152;2023-08-06T04:01:45;6.90;;;3.85;;
31848;SDS011;18414;59.352;18.152;2023-08-06T04:04:11;7.57;;;3.42;;
31848;SDS011;18414;59.352;18.152;2023-08-06T04:06:36;5.80;;;3.80;;
31848;SDS011;18414;59.352;18.152;2023-08-06T04:09:01;3.70;;;2.92;;
31848;SDS011;18414;59.352;18.152;2023-08-06T04:11:27;4.78;;;3.35;;
31848;SDS011;18414;59.352;18.152;2023-08-06T04:13:53;6.25;;;3.45;;
31848;SDS011;18414;59.352;18.152;2023-08-06T04:16:20;4.72;;;3.53;;
31848;SDS011;18414;59.352;18.152;2023-08-06T04:18:45;7.10;;;3.10;;
31848;SDS011;18414;59.352;18.152;2023-08-06T04:21:10;5.13;;;3.40;;
31848;SDS011;18414;59.352;18.152;2023-08-06T04:23:36;4.22;;;3.05;;
31848;SDS011;18414;59.352;18.152;2023-08-06T04:26:01;5.68;;;3.67;;
31848;SDS011;18414;59.352;18.152;2023-08-06T04:28:27;5.50;;;3.38;;
31848;SDS011;18414;59.352;18.152;2023-08-06T04:30:52;7.07;;;3.30;;
31848;SDS011;18414;59.352;18.152;2023-08-06T04:33:18;10.00;;;4.93;;
31848;SDS011;18414;59.352;18.152;2023-08-06T04:35:44;6.45;;;3.90;;
31848;SDS011;18414;59.352;18.152;2023-08-06T04:38:09;4.15;;;3.40;;
31848;SDS011;18414;59.352;18.152;2023-08-06T04:40:35;6.63;;;3.60;;
31848;SDS011;18414;59.352;18.152;2023-08-06T04:43:01;4.43;;;3.50;;
31848;SDS011;18414;59.352;18.152;2023-08-06T04:45:27;6.50;;;4.25;;
31848;SDS011;18414;59.352;18.152;2023-08-06T04:47:52;4.55;;;3.83;;
31848;SDS011;18414;59.352;18.152;2023-08-06T04:50:18;7.10;;;3.75;;
31848;SDS011;18414;59.352;18.152;2023-08-06T04:52:44;7.55;;;4.13;;
31848;SDS011;18414;59.352;18.152;2023-08-06T04:55:09;5.03;;;3.95;;
31848;SDS011;18414;59.352;18.152;2023-08-06T04:57:36;5.18;;;3.60;;
31848;SDS011;18414;59.352;18.152;2023-08-06T05:00:01;5.45;;;3.53;;
31848;SDS011;18414;59.352;18.152;2023-08-06T05:02:27;5.97;;;3.45;;
31848;SDS011;18414;59.352;18.152;2023-08-06T05:04:53;6.25;;;4.40;;
31848;SDS011;18414;59.352;18.152;2023-08-06T05:07:18;9.63;;;4.40;;
31848;SDS011;18414;59.352;18.152;2023-08-06T05:09:43;7.57;;;3.83;;
31848;SDS011;18414;59.352;18.152;2023-08-06T05:12:09;7.88;;;4.70;;
31848;SDS011;18414;59.352;18.152;2023-08-06T05:14:34;6.45;;;4.35;;
31848;SDS011;18414;59.352;18.152;2023-08-06T05:16:59;5.18;;;4.43;;
31848;SDS011;18414;59.352;18.152;2023-08-06T05:19:27;7.80;;;4.53;;
31848;SDS011;18414;59.352;18.152;2023-08-06T05:21:52;9.93;;;4.38;;
31848;SDS011;18414;59.352;18.152;2023-08-06T05:24:17;7.30;;;4.57;;
31848;SDS011;18414;59.352;18.152;2023-08-06T05:26:43;5.43;;;4.10;;
31848;SDS011;18414;59.352;18.152;2023-08-06T05:29:11;5.00;;;3.75;;
31848;SDS011;18414;59.352;18.152;2023-08-06T05:31:37;7.00;;;4.15;;
31848;SDS011;18414;59.352;18.152;2023-08-06T05:34:02;7.90;;;3.88;;
31848;SDS011;18414;59.352;18.152;2023-08-06T05:36:28;7.03;;;3.65;;
31848;SDS011;18414;59.352;18.152;2023-08-06T05:38:53;6.72;;;3.40;;
31848;SDS011;18414;59.352;18.152;2023-08-06T05:41:18;6.30;;;4.13;;
31848;SDS011;18414;59.352;18.152;2023-08-06T05:43:44;4.95;;;3.42;;
31848;SDS011;18414;59.352;18.152;2023-08-06T05:46:10;6.07;;;3.53;;
31848;SDS011;18414;59.352;18.152;2023-08-06T05:48:35;5.30;;;3.90;;
31848;SDS011;18414;59.352;18.152;2023-08-06T05:51:00;7.15;;;3.83;;
31848;SDS011;18414;59.352;18.152;2023-08-06T05:53:25;5.03;;;3.42;;
31848;SDS011;18414;59.352;18.152;2023-08-06T05:55:51;5.00;;;3.08;;
31848;SDS011;18414;59.352;18.152;2023-08-06T05:58:16;4.78;;;3.00;;
31848;SDS011;18414;59.352;18.152;2023-08-06T06:00:42;4.13;;;3.13;;
31848;SDS011;18414;59.352;18.152;2023-08-06T06:03:07;4.07;;;3.10;;
31848;SDS011;18414;59.352;18.152;2023-08-06T06:05:32;4.68;;;3.22;;
31848;SDS011;18414;59.352;18.152;2023-08-06T06:07:58;3.55;;;3.15;;
31848;SDS011;18414;59.352;18.152;2023-08-06T06:10:23;4.82;;;3.03;;
31848;SDS011;18414;59.352;18.152;2023-08-06T06:12:48;4.93;;;3.47;;
31848;SDS011;18414;59.352;18.152;2023-08-06T06:15:14;5.35;;;3.40;;
31848;SDS011;18414;59.352;18.152;2023-08-06T06:17:39;5.05;;;2.92;;
31848;SDS011;18414;59.352;18.152;2023-08-06T06:20:05;4.57;;;3.10;;
31848;SDS011;18414;59.352;18.152;2023-08-06T06:22:31;6.07;;;3.42;;
31848;SDS011;18414;59.352;18.152;2023-08-06T06:24:56;4.75;;;3.22;;
31848;SDS011;18414;59.352;18.152;2023-08-06T06:27:21;7.47;;;3.10;;
31848;SDS011;18414;59.352;18.152;2023-08-06T06:29:47;3.65;;;3.10;;
31848;SDS011;18414;59.352;18.152;2023-08-06T06:32:12;5.95;;;3.15;;
31848;SDS011;18414;59.352;18.152;2023-08-06T06:34:37;3.55;;;2.75;;
31848;SDS011;18414;59.352;18.152;2023-08-06T06:37:03;4.82;;;3.10;;
31848;SDS011;18414;59.352;18.152;2023-08-06T06:39:30;4.13;;;3.00;;
31848;SDS011;18414;59.352;18.152;2023-08-06T06:41:56;4.25;;;2.80;;
31848;SDS011;18414;59.352;18.152;2023-08-06T06:44:21;5.60;;;3.10;;
31848;SDS011;18414;59.352;18.152;2023-08-06T06:46:47;4.97;;;2.85;;
31848;SDS011;18414;59.352;18.152;2023-08-06T06:49:12;4.13;;;2.70;;
31848;SDS011;18414;59.352;18.152;2023-08-06T06:51:38;4.70;;;2.78;;
31848;SDS011;18414;59.352;18.152;2023-08-06T06:54:04;4.53;;;3.05;;
31848;SDS011;18414;59.352;18.152;2023-08-06T06:56:29;4.68;;;2.63;;
31848;SDS011;18414;59.352;18.152;2023-08-06T06:58:55;4.30;;;3.17;;
31848;SDS011;18414;59.352;18.152;2023-08-06T07:01:21;5.07;;;3.03;;
31848;SDS011;18414;59.352;18.152;2023-08-06T07:03:46;5.70;;;3.15;;
31848;SDS011;18414;59.352;18.152;2023-08-06T07:06:14;2.92;;;2.33;;
31848;SDS011;18414;59.352;18.152;2023-08-06T07:08:40;4.72;;;2.50;;
31848;SDS011;18414;59.352;18.152;2023-08-06T07:11:06;5.05;;;2.90;;
31848;SDS011;18414;59.352;18.152;2023-08-06T07:13:32;5.72;;;2.80;;
31848;SDS011;18414;59.352;18.152;2023-08-06T07:15:58;3.38;;;2.88;;
31848;SDS011;18414;59.352;18.152;2023-08-06T07:18:24;8.13;;;2.63;;
31848;SDS011;18414;59.352;18.152;2023-08-06T07:20:49;6.05;;;3.20;;
31848;SDS011;18414;59.352;18.152;2023-08-06T07:23:16;6.30;;;2.80;;
31848;SDS011;18414;59.352;18.152;2023-08-06T07:25:41;6.28;;;3.03;;
31848;SDS011;18414;59.352;18.152;2023-08-06T07:28:07;4.53;;;3.10;;
31848;SDS011;18414;59.352;18.152;2023-08-06T07:30:33;5.68;;;3.03;;
31848;SDS011;18414;59.352;18.152;2023-08-06T07:32:58;5.38;;;3.03;;
31848;SDS011;18414;59.352;18.152;2023-08-06T07:35:23;7.55;;;3.20;;
31848;SDS011;18414;59.352;18.152;2023-08-06T07:37:49;5.00;;;3.17;;
31848;SDS011;18414;59.352;18.152;2023-08-06T07:40:15;7.75;;;3.40;;
31848;SDS011;18414;59.352;18.152;2023-08-06T07:42:40;4.70;;;3.00;;
31848;SDS011;18414;59.352;18.152;2023-08-06T07:45:06;5.03;;;3.08;;
31848;SDS011;18414;59.352;18.152;2023-08-06T07:47:32;7.45;;;3.38;;
31848;SDS011;18414;59.352;18.152;2023-08-06T07:49:57;6.57;;;2.92;;
31848;SDS011;18414;59.352;18.152;2023-08-06T07:52:23;5.47;;;3.15;;
31848;SDS011;18414;59.352;18.152;2023-08-06T07:54:48;6.25;;;3.05;;
31848;SDS011;18414;59.352;18.152;2023-08-06T07:57:14;6.25;;;3.15;;
31848;SDS011;18414;59.352;18.152;2023-08-06T07:59:40;5.70;;;3.10;;
31848;SDS011;18414;59.352;18.152;2023-08-06T08:02:06;7.35;;;3.22;;
31848;SDS011;18414;59.352;18.152;2023-08-06T08:04:31;3.92;;;3.10;;
31848;SDS011;18414;59.352;18.152;2023-08-06T08:06:56;4.28;;;3.10;;
31848;SDS011;18414;59.352;18.152;2023-08-06T08:09:24;4.63;;;3.08;;
31848;SDS011;18414;59.352;18.152;2023-08-06T08:11:49;7.32;;;3.10;;
31848;SDS011;18414;59.352;18.152;2023-08-06T08:14:15;4.90;;;3.20;;
31848;SDS011;18414;59.352;18.152;2023-08-06T08:16:41;5.57;;;3.15;;
31848;SDS011;18414;59.352;18.152;2023-08-06T08:19:07;5.20;;;3.20;;
31848;SDS011;18414;59.352;18.152;2023-08-06T08:21:32;7.72;;;2.97;;
31848;SDS011;18414;59.352;18.152;2023-08-06T08:23:59;4.78;;;2.90;;
31848;SDS011;18414;59.352;18.152;2023-08-06T08:26:25;5.20;;;2.90;;
31848;SDS011;18414;59.352;18.152;2023-08-06T08:28:52;5.25;;;2.97;;
31848;SDS011;18414;59.352;18.152;2023-08-06T08:31:18;4.38;;;2.72;;
31848;SDS011;18414;59.352;18.152;2023-08-06T08:33:44;5.18;;;2.78;;
31848;SDS011;18414;59.352;18.152;2023-08-06T08:36:10;6.57;;;3.00;;
31848;SDS011;18414;59.352;18.152;2023-08-06T08:38:35;4.25;;;2.80;;
31848;SDS011;18414;59.352;18.152;2023-08-06T08:41:01;4.95;;;2.80;;
31848;SDS011;18414;59.352;18.152;2023-08-06T08:43:26;6.97;;;3.20;;
31848;SDS011;18414;59.352;18.152;2023-08-06T08:45:52;7.43;;;2.92;;
31848;SDS011;18414;59.352;18.152;2023-08-06T08:48:25;6.82;;;3.17;;
31848;SDS011;18414;59.352;18.152;2023-08-06T08:50:52;5.10;;;2.92;;
31848;SDS011;18414;59.352;18.152;2023-08-06T08:53:18;5.00;;;3.03;;
31848;SDS011;18414;59.352;18.152;2023-08-06T08:55:46;4.50;;;2.80;;
31848;SDS011;18414;59.352;18.152;2023-08-06T08:58:12;4.72;;;2.78;;
31848;SDS011;18414;59.352;18.152;2023-08-06T09:00:38;4.82;;;3.03;;
31848;SDS011;18414;59.352;18.152;2023-08-06T09:03:13;5.50;;;2.92;;
31848;SDS011;18414;59.352;18.152;2023-08-06T09:05:42;7.00;;;2.70;;
31848;SDS011;18414;59.352;18.152;2023-08-06T09:08:09;7.90;;;2.90;;
31848;SDS011;18414;59.352;18.152;2023-08-06T09:10:36;7.40;;;3.10;;
31848;SDS011;18414;59.352;18.152;2023-08-06T09:13:03;5.97;;;2.90;;
31848;SDS011;18414;59.352;18.152;2023-08-06T09:15:29;5.68;;;2.90;;
31848;SDS011;18414;59.352;18.152;2023-08-06T09:17:55;5.53;;;2.65;;
31848;SDS011;18414;59.352;18.152;2023-08-06T09:20:20;8.52;;;3.95;;
31848;SDS011;18414;59.352;18.152;2023-08-06T09:22:46;5.00;;;2.88;;
31848;SDS011;18414;59.352;18.152;2023-08-06T09:25:20;11.30;;;3.85;;
31848;SDS011;18414;59.352;18.152;2023-08-06T09:27:49;4.68;;;2.72;;
31848;SDS011;18414;59.352;18.152;2023-08-06T09:30:28;5.47;;;3.03;;
31848;SDS011;18414;59.352;18.152;2023-08-06T09:32:58;5.65;;;3.20;;
31848;SDS011;18414;59.352;18.152;2023-08-06T09:35:23;6.85;;;2.80;;
31848;SDS011;18414;59.352;18.152;2023-08-06T09:37:49;5.28;;;2.95;;
31848;SDS011;18414;59.352;18.152;2023-08-06T09:43:10;3.92;;;2.85;;
31848;SDS011;18414;59.352;18.152;2023-08-06T09:45:37;5.53;;;2.92;;
31848;SDS011;18414;59.352;18.152;2023-08-06T09:48:03;7.40;;;2.90;;
31848;SDS011;18414;59.352;18.152;2023-08-06T09:50:33;8.10;;;3.28;;
31848;SDS011;18414;59.352;18.152;2023-08-06T09:53:05;5.70;;;3.00;;
31848;SDS011;18414;59.352;18.152;2023-08-06T09:55:32;6.80;;;3.20;;
31848;SDS011;18414;59.352;18.152;2023-08-06T09:57:58;5.13;;;2.63;;
31848;SDS011;18414;59.352;18.152;2023-08-06T10:00:24;4.47;;;2.80;;
31848;SDS011;18414;59.352;18.152;2023-08-06T10:02:49;4.97;;;3.10;;
31848;SDS011;18414;59.352;18.152;2023-08-06T10:05:18;4.40;;;3.00;;
31848;SDS011;18414;59.352;18.152;2023-08-06T10:07:44;6.47;;;3.00;;
31848;SDS011;18414;59.352;18.152;2023-08-06T10:10:11;5.75;;;2.80;;
31848;SDS011;18414;59.352;18.152;2023-08-06T10:12:44;6.50;;;3.13;;
31848;SDS011;18414;59.352;18.152;2023-08-06T10:15:13;8.13;;;3.15;;
31848;SDS011;18414;59.352;18.152;2023-08-06T10:17:40;4.30;;;3.10;;
31848;SDS011;18414;59.352;18.152;2023-08-06T10:20:07;6.65;;;3.10;;
31848;SDS011;18414;59.352;18.152;2023-08-06T10:22:34;4.70;;;3.00;;
31848;SDS011;18414;59.352;18.152;2023-08-06T10:25:00;4.97;;;2.70;;
31848;SDS011;18414;59.352;18.152;2023-08-06T10:27:30;5.40;;;3.00;;
31848;SDS011;18414;59.352;18.152;2023-08-06T10:30:44;6.28;;;3.28;;
31848;SDS011;18414;59.352;18.152;2023-08-06T10:32:48;8.32;;;3.20;;
31848;SDS011;18414;59.352;18.152;2023-08-06T10:35:34;5.78;;;3.30;;
31848;SDS011;18414;59.352;18.152;2023-08-06T10:38:14;8.20;;;3.45;;
31848;SDS011;18414;59.352;18.152;2023-08-06T10:40:41;6.25;;;3.03;;
31848;SDS011;18414;59.352;18.152;2023-08-06T10:43:29;6.10;;;3.00;;
31848;SDS011;18414;59.352;18.152;2023-08-06T10:45:57;6.47;;;3.10;;
31848;SDS011;18414;59.352;18.152;2023-08-06T10:48:30;6.18;;;3.00;;
31848;SDS011;18414;59.352;18.152;2023-08-06T10:50:59;7.13;;;3.00;;
31848;SDS011;18414;59.352;18.152;2023-08-06T10:53:25;7.15;;;3.30;;
31848;SDS011;18414;59.352;18.152;2023-08-06T10:55:51;5.25;;;3.03;;
31848;SDS011;18414;59.352;18.152;2023-08-06T10:58:16;8.07;;;3.60;;
31848;SDS011;18414;59.352;18.152;2023-08-06T11:00:42;6.57;;;3.58;;
31848;SDS011;18414;59.352;18.152;2023-08-06T11:03:07;6.95;;;3.75;;
31848;SDS011;18414;59.352;18.152;2023-08-06T11:05:33;5.95;;;3.50;;
31848;SDS011;18414;59.352;18.152;2023-08-06T11:07:58;7.40;;;3.50;;
31848;SDS011;18414;59.352;18.152;2023-08-06T11:10:25;6.60;;;3.80;;
31848;SDS011;18414;59.352;18.152;2023-08-06T11:12:50;6.45;;;3.80;;
31848;SDS011;18414;59.352;18.152;2023-08-06T11:15:16;6.15;;;3.70;;
31848;SDS011;18414;59.352;18.152;2023-08-06T11:17:41;6.53;;;3.90;;
31848;SDS011;18414;59.352;18.152;2023-08-06T11:20:07;6.68;;;3.85;;
31848;SDS011;18414;59.352;18.152;2023-08-06T11:22:35;4.47;;;3.42;;
31848;SDS011;18414;59.352;18.152;2023-08-06T11:25:01;6.60;;;4.07;;
31848;SDS011;18414;59.352;18.152;2023-08-06T11:27:27;9.23;;;4.00;;
31848;SDS011;18414;59.352;18.152;2023-08-06T11:29:55;8.30;;;4.03;;
31848;SDS011;18414;59.352;18.152;2023-08-06T11:32:20;5.82;;;4.03;;
31848;SDS011;18414;59.352;18.152;2023-08-06T11:34:46;9.02;;;4.53;;
31848;SDS011;18414;59.352;18.152;2023-08-06T11:37:11;7.85;;;4.28;;
31848;SDS011;18414;59.352;18.152;2023-08-06T11:39:37;8.60;;;4.72;;
31848;SDS011;18414;59.352;18.152;2023-08-06T11:42:03;8.27;;;4.75;;
31848;SDS011;18414;59.352;18.152;2023-08-06T11:44:31;9.32;;;4.68;;
31848;SDS011;18414;59.352;18.152;2023-08-06T11:46:58;7.80;;;5.05;;
31848;SDS011;18414;59.352;18.152;2023-08-06T11:52:21;5.82;;;4.57;;
31848;SDS011;18414;59.352;18.152;2023-08-06T11:55:00;8.93;;;5.18;;
31848;SDS011;18414;59.352;18.152;2023-08-06T11:57:33;8.85;;;4.90;;
31848;SDS011;18414;59.352;18.152;2023-08-06T12:00:20;9.07;;;5.40;;
31848;SDS011;18414;59.352;18.152;2023-08-06T12:02:50;9.38;;;5.55;;
31848;SDS011;18414;59.352;18.152;2023-08-06T12:05:20;7.88;;;5.65;;
31848;SDS011;18414;59.352;18.152;2023-08-06T12:07:56;8.02;;;5.63;;
31848;SDS011;18414;59.352;18.152;2023-08-06T12:10:26;8.77;;;5.63;;
31848;SDS011;18414;59.352;18.152;2023-08-06T12:12:53;8.40;;;5.15;;
31848;SDS011;18414;59.352;18.152;2023-08-06T12:15:18;10.52;;;5.63;;
31848;SDS011;18414;59.352;18.152;2023-08-06T12:17:44;8.60;;;5.85;;
31848;SDS011;18414;59.352;18.152;2023-08-06T12:20:11;7.28;;;5.35;;
31848;SDS011;18414;59.352;18.152;2023-08-06T12:22:37;10.00;;;6.38;;
31848;SDS011;18414;59.352;18.152;2023-08-06T12:25:07;9.25;;;5.38;;
31848;SDS011;18414;59.352;18.152;2023-08-06T12:27:40;8.30;;;5.72;;
31848;SDS011;18414;59.352;18.152;2023-08-06T12:30:09;8.23;;;5.82;;
31848;SDS011;18414;59.352;18.152;2023-08-06T12:32:36;10.85;;;5.72;;
31848;SDS011;18414;59.352;18.152;2023-08-06T12:35:02;8.63;;;5.80;;
31848;SDS011;18414;59.352;18.152;2023-08-06T12:37:28;7.88;;;6.20;;
31848;SDS011;18414;59.352;18.152;2023-08-06T12:39:53;8.40;;;5.63;;
31848;SDS011;18414;59.352;18.152;2023-08-06T12:42:19;11.23;;;6.07;;
31848;SDS011;18414;59.352;18.152;2023-08-06T12:44:44;7.97;;;5.97;;
31848;SDS011;18414;59.352;18.152;2023-08-06T12:47:09;8.68;;;5.93;;
31848;SDS011;18414;59.352;18.152;2023-08-06T12:49:35;7.68;;;5.45;;
31848;SDS011;18414;59.352;18.152;2023-08-06T12:52:00;8.90;;;5.80;;
31848;SDS011;18414;59.352;18.152;2023-08-06T12:54:27;8.20;;;5.55;;
31848;SDS011;18414;59.352;18.152;2023-08-06T12:56:52;8.63;;;6.50;;
31848;SDS011;18414;59.352;18.152;2023-08-06T12:59:18;11.40;;;6.20;;
31848;SDS011;18414;59.352;18.152;2023-08-06T13:01:44;11.43;;;6.28;;
31848;SDS011;18414;59.352;18.152;2023-08-06T13:04:09;9.15;;;6.05;;
31848;SDS011;18414;59.352;18.152;2023-08-06T13:06:35;11.90;;;6.15;;
31848;SDS011;18414;59.352;18.152;2023-08-06T13:09:04;8.20;;;5.47;;
31848;SDS011;18414;59.352;18.152;2023-08-06T13:11:31;8.38;;;5.60;;
31848;SDS011;18414;59.352;18.152;2023-08-06T13:14:04;6.13;;;5.30;;
31848;SDS011;18414;59.352;18.152;2023-08-06T13:16:30;7.60;;;5.65;;
31848;SDS011;18414;59.352;18.152;2023-08-06T13:18:56;9.20;;;5.43;;
31848;SDS011;18414;59.352;18.152;2023-08-06T13:21:21;6.50;;;5.38;;
31848;SDS011;18414;59.352;18.152;2023-08-06T13:23:46;11.30;;;5.65;;
31848;SDS011;18414;59.352;18.152;2023-08-06T13:26:12;9.23;;;5.60;;
31848;SDS011;18414;59.352;18.152;2023-08-06T13:28:38;7.18;;;5.03;;
31848;SDS011;18414;59.352;18.152;2023-08-06T13:31:03;7.22;;;5.60;;
31848;SDS011;18414;59.352;18.152;2023-08-06T13:33:29;7.88;;;5.82;;
31848;SDS011;18414;59.352;18.152;2023-08-06T13:35:54;8.48;;;5.40;;
31848;SDS011;18414;59.352;18.152;2023-08-06T13:38:19;9.15;;;5.30;;
31848;SDS011;18414;59.352;18.152;2023-08-06T13:40:45;7.75;;;5.35;;
31848;SDS011;18414;59.352;18.152;2023-08-06T13:43:11;6.47;;;4.82;;
31848;SDS011;18414;59.352;18.152;2023-08-06T13:45:36;8.68;;;5.65;;
31848;SDS011;18414;59.352;18.152;2023-08-06T13:48:03;8.02;;;5.35;;
31848;SDS011;18414;59.352;18.152;2023-08-06T13:50:28;8.77;;;5.28;;
31848;SDS011;18414;59.352;18.152;2023-08-06T13:52:54;9.60;;;5.60;;
31848;SDS011;18414;59.352;18.152;2023-08-06T13:55:20;8.32;;;5.85;;
31848;SDS011;18414;59.352;18.152;2023-08-06T13:57:46;7.47;;;5.57;;
31848;SDS011;18414;59.352;18.152;2023-08-06T14:00:12;7.35;;;5.47;;
31848;SDS011;18414;59.352;18.152;2023-08-06T14:02:37;7.40;;;5.50;;
31848;SDS011;18414;59.352;18.152;2023-08-06T14:05:03;8.80;;;4.82;;
31848;SDS011;18414;59.352;18.152;2023-08-06T14:07:30;7.35;;;5.80;;
31848;SDS011;18414;59.352;18.152;2023-08-06T14:09:55;8.38;;;6.07;;
31848;SDS011;18414;59.352;18.152;2023-08-06T14:12:22;8.93;;;6.38;;
31848;SDS011;18414;59.352;18.152;2023-08-06T14:14:48;9.30;;;6.65;;
31848;SDS011;18414;59.352;18.152;2023-08-06T14:17:13;10.80;;;6.45;;
31848;SDS011;18414;59.352;18.152;2023-08-06T14:19:39;7.43;;;6.03;;
31848;SDS011;18414;59.352;18.152;2023-08-06T14:22:04;7.90;;;6.05;;
31848;SDS011;18414;59.352;18.152;2023-08-06T14:24:30;7.32;;;6.28;;
31848;SDS011;18414;59.352;18.152;2023-08-06T14:26:56;8.85;;;4.32;;
31848;SDS011;18414;59.352;18.152;2023-08-06T14:29:21;9.25;;;6.40;;
31848;SDS011;18414;59.352;18.152;2023-08-06T14:31:46;8.70;;;6.20;;
31848;SDS011;18414;59.352;18.152;2023-08-06T14:34:12;7.10;;;5.90;;
31848;SDS011;18414;59.352;18.152;2023-08-06T14:36:37;10.32;;;7.20;;
31848;SDS011;18414;59.352;18.152;2023-08-06T14:39:02;8.13;;;5.53;;
31848;SDS011;18414;59.352;18.152;2023-08-06T14:41:28;8.10;;;6.30;;